Time;durP1;ratioP1;P1;durP2;ratioP2;P2;SDS_P1;SDS_P2;PMS_P1;PMS_P2;Temp;Humidity;BMP_temperature;BMP_pressure;BME280_temperature;BME280_humidity;BME280_pressure;Samples;Min_cycle;Max_cycle;Signal;HPM_P1;HPM_P2
2021/01/15 00:01:35;;;;;;;5.60;4.40;;;0.80;99.90;;;;;;5050338;28;20486;-72
2021/01/15 00:04:02;;;;;;;10.23;5.20;;;0.70;99.90;;;;;;5050093;28;20451;-72
2021/01/15 00:06:28;;;;;;;6.10;4.13;;;0.70;99.90;;;;;;5049890;28;20454;-72
2021/01/15 00:08:56;;;;;;;6.50;4.67;;;0.70;99.90;;;;;;5050004;28;20505;-71
2021/01/15 00:11:24;;;;;;;7.17;4.00;;;0.60;99.90;;;;;;5049284;28;20945;-72
2021/01/15 00:13:52;;;;;;;5.80;3.87;;;0.60;99.90;;;;;;5050342;28;20452;-71
2021/01/15 00:16:20;;;;;;;5.90;4.50;;;0.60;99.90;;;;;;5049149;28;20645;-72
2021/01/15 00:18:46;;;;;;;5.23;3.73;;;0.50;99.90;;;;;;5044043;28;20453;-72
2021/01/15 00:21:24;;;;;;;8.73;5.03;;;0.50;99.90;;;;;;5045011;28;20510;-70
2021/01/15 00:23:52;;;;;;;7.10;3.83;;;0.50;99.90;;;;;;5050232;28;20885;-71
2021/01/15 00:26:19;;;;;;;6.50;4.10;;;0.40;99.90;;;;;;5049350;28;20824;-71
2021/01/15 00:28:47;;;;;;;5.17;4.10;;;0.40;99.90;;;;;;5049640;28;20480;-71
2021/01/15 00:31:14;;;;;;;7.23;4.80;;;0.40;99.90;;;;;;5049001;28;20551;-70
2021/01/15 00:33:41;;;;;;;4.57;3.87;;;0.40;99.90;;;;;;5050138;28;20578;-72
2021/01/15 00:36:08;;;;;;;4.67;3.67;;;0.40;99.90;;;;;;5048953;28;20470;-71
2021/01/15 00:38:35;;;;;;;5.60;3.90;;;0.40;99.90;;;;;;5049960;28;20480;-70
2021/01/15 00:41:02;;;;;;;6.13;5.53;;;0.40;99.90;;;;;;5047460;28;20860;-71
2021/01/15 00:43:29;;;;;;;8.53;5.73;;;0.40;99.90;;;;;;5047698;28;20444;-71
2021/01/15 00:45:55;;;;;;;5.60;4.50;;;0.40;99.90;;;;;;5048952;28;20448;-71
2021/01/15 00:48:23;;;;;;;5.70;3.70;;;0.40;99.90;;;;;;5049218;28;20562;-72
2021/01/15 00:50:49;;;;;;;4.00;3.13;;;0.40;99.90;;;;;;5047319;28;21129;-72
2021/01/15 00:53:16;;;;;;;3.73;3.33;;;0.40;99.90;;;;;;5049248;28;20462;-72
2021/01/15 00:55:42;;;;;;;5.50;4.50;;;0.40;99.90;;;;;;5048812;28;20896;-71
2021/01/15 00:58:12;;;;;;;4.80;3.60;;;0.50;99.90;;;;;;5049952;28;20561;-70
2021/01/15 01:00:39;;;;;;;4.03;3.50;;;0.50;99.90;;;;;;5049109;28;20539;-70
2021/01/15 01:03:06;;;;;;;6.77;3.93;;;0.40;99.90;;;;;;5050876;28;20532;-70
2021/01/15 01:05:34;;;;;;;6.50;3.73;;;0.40;99.90;;;;;;5049068;28;20443;-71
2021/01/15 01:08:00;;;;;;;5.17;3.67;;;0.40;99.90;;;;;;5050742;28;20447;-70
2021/01/15 01:10:26;;;;;;;3.80;3.17;;;0.40;99.90;;;;;;5050087;28;20451;-71
2021/01/15 01:12:53;;;;;;;4.63;3.07;;;0.50;99.90;;;;;;5049856;28;20501;-71
2021/01/15 01:15:19;;;;;;;5.23;3.50;;;0.40;99.90;;;;;;5050498;28;20447;-71
2021/01/15 01:17:46;;;;;;;4.10;2.90;;;0.40;99.90;;;;;;5050495;28;20454;-71
2021/01/15 01:20:13;;;;;;;3.77;2.70;;;0.40;99.90;;;;;;5049932;28;20904;-71
2021/01/15 01:22:40;;;;;;;4.53;2.80;;;0.40;99.90;;;;;;5050504;28;20544;-71
2021/01/15 01:25:07;;;;;;;4.37;2.93;;;0.30;99.90;;;;;;5050320;28;20801;-71
2021/01/15 01:27:34;;;;;;;4.67;2.70;;;0.30;99.90;;;;;;5050615;28;20471;-71
2021/01/15 01:30:00;;;;;;;4.07;3.27;;;0.20;99.90;;;;;;5049696;28;20483;-71
2021/01/15 01:32:26;;;;;;;2.90;2.57;;;0.20;99.90;;;;;;5050249;28;20579;-68
2021/01/15 01:34:53;;;;;;;5.03;3.10;;;0.20;99.90;;;;;;5050458;28;20871;-70
2021/01/15 01:37:19;;;;;;;4.70;2.97;;;0.20;99.90;;;;;;5050266;28;20895;-71
2021/01/15 01:39:46;;;;;;;6.13;3.47;;;0.10;99.90;;;;;;5049791;28;20436;-71
2021/01/15 01:42:13;;;;;;;3.40;2.67;;;0.10;99.90;;;;;;5050206;28;20468;-71
2021/01/15 01:44:39;;;;;;;5.13;3.10;;;0.10;99.90;;;;;;5050212;28;20483;-69
2021/01/15 01:47:06;;;;;;;4.13;3.30;;;0.00;99.90;;;;;;5049811;28;20636;-70
2021/01/15 01:49:33;;;;;;;5.60;3.00;;;-0.10;99.90;;;;;;5049377;28;20478;-70
2021/01/15 01:52:03;;;;;;;7.40;3.20;;;-0.10;99.90;;;;;;5049703;28;20606;-71
2021/01/15 01:54:33;;;;;;;6.40;3.27;;;-0.10;99.90;;;;;;5049877;28;20451;-71
2021/01/15 01:57:01;;;;;;;5.00;3.10;;;-0.20;99.90;;;;;;5049990;28;20459;-71
2021/01/15 01:59:28;;;;;;;4.60;3.30;;;-0.30;99.90;;;;;;5049306;28;20506;-69
2021/01/15 02:01:54;;;;;;;5.13;2.80;;;-0.40;99.90;;;;;;5049977;28;20922;-70
2021/01/15 02:04:21;;;;;;;5.00;3.80;;;-0.40;99.90;;;;;;5049723;28;20539;-70
2021/01/15 02:06:47;;;;;;;5.78;3.50;;;-0.40;99.90;;;;;;5049418;28;20458;-71
2021/01/15 02:09:14;;;;;;;5.60;3.70;;;-0.40;99.90;;;;;;5049266;28;20232;-71
2021/01/15 02:11:48;;;;;;;6.90;4.00;;;-0.50;99.90;;;;;;5049826;28;20460;-71
2021/01/15 02:14:23;;;;;;;6.20;3.90;;;-0.50;99.90;;;;;;5049842;28;20593;-71
2021/01/15 02:16:52;;;;;;;5.83;3.20;;;-0.60;99.90;;;;;;5049479;28;20449;-70
2021/01/15 02:19:42;;;;;;;5.73;3.30;;;-0.50;99.90;;;;;;5048914;28;20503;-71
2021/01/15 02:22:20;;;;;;;4.60;2.97;;;-0.60;99.90;;;;;;5049522;28;20483;-71
2021/01/15 02:25:14;;;;;;;4.80;3.70;;;-0.60;99.90;;;;;;5049851;28;20823;-71
2021/01/15 02:28:05;;;;;;;7.17;3.50;;;-0.60;99.90;;;;;;5046366;28;20591;-70
2021/01/15 02:30:46;;;;;;;6.80;4.33;;;-0.60;99.90;;;;;;5049030;28;20493;-70
2021/01/15 02:33:19;;;;;;;4.50;3.50;;;-0.60;99.90;;;;;;5049462;28;20446;-71
2021/01/15 02:35:55;;;;;;;4.63;3.43;;;-0.60;99.90;;;;;;5049273;28;20440;-70
2021/01/15 02:38:30;;;;;;;7.20;3.30;;;-0.60;99.90;;;;;;5049506;28;20483;-70
2021/01/15 02:41:18;;;;;;;6.20;3.53;;;-0.60;99.90;;;;;;5048702;28;20472;-70
2021/01/15 02:43:50;;;;;;;5.67;4.37;;;-0.70;99.90;;;;;;5038285;28;20981;-70
2021/01/15 02:46:21;;;;;;;5.30;3.33;;;-0.70;99.90;;;;;;5049008;28;20561;-70
2021/01/15 02:48:51;;;;;;;5.50;3.53;;;-0.70;99.90;;;;;;5049387;28;20484;-71
2021/01/15 02:51:19;;;;;;;10.80;5.03;;;-0.80;99.90;;;;;;5048761;28;20468;-70
2021/01/15 02:53:46;;;;;;;5.00;3.80;;;-0.90;99.90;;;;;;5049063;28;20440;-70
2021/01/15 02:56:14;;;;;;;5.20;4.03;;;-0.90;99.90;;;;;;5048876;28;20526;-70
2021/01/15 02:58:41;;;;;;;7.40;4.40;;;-0.90;99.90;;;;;;5048812;28;20963;-71
2021/01/15 03:01:07;;;;;;;4.83;3.70;;;-0.80;99.90;;;;;;5048627;28;20467;-70
2021/01/15 03:03:45;;;;;;;6.50;4.30;;;-0.90;99.90;;;;;;5048987;28;20493;-70
2021/01/15 03:06:15;;;;;;;5.50;4.20;;;-1.00;99.90;;;;;;5048757;28;20888;-70
2021/01/15 03:08:48;;;;;;;6.60;3.67;;;-1.00;99.90;;;;;;5048640;28;20494;-70
2021/01/15 03:11:16;;;;;;;4.20;3.80;;;-1.00;99.90;;;;;;5047281;28;20563;-70
2021/01/15 03:13:44;;;;;;;9.30;4.00;;;-1.10;99.90;;;;;;5048456;28;20452;-71
2021/01/15 03:16:13;;;;;;;5.20;4.70;;;-1.10;99.90;;;;;;5048985;28;20501;-70
2021/01/15 03:18:42;;;;;;;6.60;4.60;;;-1.10;99.90;;;;;;5048790;28;20824;-70
2021/01/15 03:21:08;;;;;;;5.23;4.70;;;-1.10;99.90;;;;;;5048362;28;20559;-70
2021/01/15 03:23:37;;;;;;;7.20;3.83;;;-1.10;99.90;;;;;;5048695;28;20984;-70
2021/01/15 03:26:04;;;;;;;6.80;5.50;;;-1.10;99.90;;;;;;5048798;28;20543;-70
2021/01/15 03:28:31;;;;;;;5.97;4.13;;;-1.20;99.90;;;;;;5048791;28;20524;-70
2021/01/15 03:30:57;;;;;;;5.60;4.10;;;-1.20;99.90;;;;;;5048135;28;20551;-70
2021/01/15 03:33:23;;;;;;;7.03;5.03;;;-1.30;99.90;;;;;;5048549;28;20448;-70
2021/01/15 03:35:50;;;;;;;5.80;4.80;;;-1.20;99.90;;;;;;5051303;28;20451;-69
2021/01/15 03:38:16;;;;;;;6.70;5.30;;;-1.20;99.90;;;;;;5052309;28;20534;-70
2021/01/15 03:40:45;;;;;;;9.40;5.37;;;-1.10;99.90;;;;;;5051808;28;20555;-70
2021/01/15 03:43:12;;;;;;;5.20;4.40;;;-1.00;99.90;;;;;;5052568;28;20447;-70
2021/01/15 03:45:39;;;;;;;5.50;4.83;;;-1.00;99.90;;;;;;5052309;28;20450;-70
2021/01/15 03:48:07;;;;;;;4.87;4.10;;;-1.00;99.90;;;;;;5052259;28;20440;-70
2021/01/15 03:50:33;;;;;;;7.50;5.17;;;-1.00;99.90;;;;;;5051402;28;20543;-70
2021/01/15 03:53:00;;;;;;;7.07;5.83;;;-1.00;99.90;;;;;;5052165;28;20451;-71
2021/01/15 03:55:26;;;;;;;8.30;5.17;;;-1.00;99.90;;;;;;5052158;28;20466;-71
2021/01/15 03:57:53;;;;;;;6.70;5.20;;;-1.10;99.90;;;;;;5052236;28;20436;-71
2021/01/15 04:00:20;;;;;;;6.60;5.47;;;-1.20;99.90;;;;;;5051622;28;20803;-71
2021/01/15 04:02:47;;;;;;;7.03;4.80;;;-1.20;99.90;;;;;;5053491;28;20534;-70
2021/01/15 04:05:14;;;;;;;6.17;5.00;;;-1.20;99.90;;;;;;5053507;28;20440;-71
2021/01/15 04:07:41;;;;;;;7.40;5.77;;;-1.30;99.90;;;;;;5053289;28;20440;-71
2021/01/15 04:10:09;;;;;;;6.00;4.37;;;-1.20;99.90;;;;;;5051670;28;20480;-70
2021/01/15 04:12:36;;;;;;;5.33;4.40;;;-1.20;99.90;;;;;;5051892;28;20486;-70
2021/01/15 04:15:04;;;;;;;8.63;5.60;;;-1.10;99.90;;;;;;5051737;28;20453;-71
2021/01/15 04:17:31;;;;;;;7.10;4.97;;;-1.10;99.90;;;;;;5051701;28;20448;-70
2021/01/15 04:19:57;;;;;;;6.17;5.13;;;-1.10;99.90;;;;;;5051093;28;20470;-70
2021/01/15 04:22:23;;;;;;;6.90;4.20;;;-1.10;99.90;;;;;;5051468;28;20913;-70
2021/01/15 04:24:50;;;;;;;4.90;3.90;;;-1.10;99.90;;;;;;5051716;28;20460;-71
2021/01/15 04:27:16;;;;;;;5.50;4.20;;;-1.20;99.90;;;;;;5051423;28;20472;-70
2021/01/15 04:29:43;;;;;;;8.90;5.10;;;-1.20;99.90;;;;;;5050826;28;20519;-70
2021/01/15 04:32:10;;;;;;;5.83;4.80;;;-1.30;99.90;;;;;;5051349;28;20547;-70
2021/01/15 04:34:36;;;;;;;6.10;4.80;;;-1.30;99.90;;;;;;5051438;28;20485;-70
2021/01/15 04:37:02;;;;;;;5.53;4.33;;;-1.40;99.90;;;;;;5051372;28;20446;-70
2021/01/15 04:39:29;;;;;;;6.70;4.70;;;-1.40;99.90;;;;;;5050807;28;20842;-70
2021/01/15 04:41:55;;;;;;;5.53;5.03;;;-1.40;99.90;;;;;;5051303;28;20924;-70
2021/01/15 04:44:22;;;;;;;7.03;4.83;;;-1.40;99.90;;;;;;5051120;28;20444;-70
2021/01/15 04:46:51;;;;;;;6.23;4.77;;;-1.40;99.90;;;;;;5049726;28;20440;-70
2021/01/15 04:49:23;;;;;;;6.50;5.17;;;-1.50;99.90;;;;;;5050393;28;20490;-70
2021/01/15 04:51:56;;;;;;;6.97;4.17;;;-1.50;99.90;;;;;;5051169;28;20468;-70
2021/01/15 04:54:34;;;;;;;6.50;4.73;;;-1.60;99.90;;;;;;5051135;28;20574;-70
2021/01/15 04:57:04;;;;;;;7.97;5.40;;;-1.70;99.90;;;;;;5050921;28;20442;-70
2021/01/15 04:59:33;;;;;;;6.40;5.33;;;-1.90;99.90;;;;;;5050237;28;20497;-70
2021/01/15 05:02:07;;;;;;;7.77;4.97;;;-1.90;99.90;;;;;;5050845;28;20478;-70
2021/01/15 05:04:35;;;;;;;6.67;5.17;;;-2.00;99.90;;;;;;5050866;28;21008;-70
2021/01/15 05:07:03;;;;;;;6.40;4.87;;;-2.00;99.90;;;;;;5050785;28;20443;-70
2021/01/15 05:09:38;;;;;;;7.23;5.30;;;-2.10;99.90;;;;;;5050125;28;20523;-70
2021/01/15 05:12:07;;;;;;;8.67;6.07;;;-2.20;99.90;;;;;;5050758;28;20463;-70
2021/01/15 05:14:35;;;;;;;10.53;6.37;;;-2.30;99.90;;;;;;5050796;28;20527;-70
2021/01/15 05:17:03;;;;;;;7.40;5.33;;;-2.30;99.90;;;;;;5050540;28;20476;-70
2021/01/15 05:19:29;;;;;;;6.70;5.13;;;-2.30;99.90;;;;;;5050149;28;20468;-70
2021/01/15 05:21:57;;;;;;;6.60;5.20;;;-2.20;99.90;;;;;;5049981;28;20474;-70
2021/01/15 05:24:24;;;;;;;9.50;5.60;;;-2.00;99.90;;;;;;5050361;28;20444;-70
2021/01/15 05:26:51;;;;;;;8.73;5.07;;;-1.90;99.90;;;;;;5050532;28;20532;-70
2021/01/15 05:29:17;;;;;;;6.93;5.23;;;-1.80;99.90;;;;;;5049951;28;20572;-70
2021/01/15 05:31:51;;;;;;;10.10;5.53;;;-1.70;99.90;;;;;;5050266;28;20495;-70
2021/01/15 05:34:18;;;;;;;7.87;5.80;;;-1.70;99.90;;;;;;5050326;28;20546;-70
2021/01/15 05:36:47;;;;;;;6.40;5.50;;;-1.70;99.90;;;;;;5050068;28;20444;-70
2021/01/15 05:39:17;;;;;;;8.00;5.20;;;-1.80;99.90;;;;;;5049375;28;20472;-70
2021/01/15 05:41:45;;;;;;;8.23;5.90;;;-2.00;99.90;;;;;;5049847;28;20517;-70
2021/01/15 05:44:23;;;;;;;7.60;5.57;;;-2.00;99.90;;;;;;5050175;28;20444;-70
2021/01/15 05:46:49;;;;;;;6.97;4.93;;;-2.00;99.90;;;;;;5049884;28;20598;-70
2021/01/15 05:49:16;;;;;;;7.87;5.00;;;-1.90;99.90;;;;;;5049406;28;21098;-70
2021/01/15 05:51:43;;;;;;;9.70;5.73;;;-1.80;99.90;;;;;;5049523;28;20492;-70
2021/01/15 05:54:11;;;;;;;11.30;5.47;;;-1.70;99.90;;;;;;5050113;28;20517;-70
2021/01/15 05:56:42;;;;;;;6.37;4.80;;;-1.60;99.90;;;;;;5049651;28;20505;-70
2021/01/15 05:59:09;;;;;;;8.70;4.60;;;-1.60;99.90;;;;;;5049122;28;20440;-70
2021/01/15 06:01:45;;;;;;;6.53;5.00;;;-1.50;99.90;;;;;;5049744;28;20521;-70
2021/01/15 06:04:13;;;;;;;6.93;4.80;;;-1.60;99.90;;;;;;5047953;28;20794;-69
2021/01/15 06:06:40;;;;;;;6.77;5.10;;;-1.60;99.90;;;;;;5049944;28;20439;-70
2021/01/15 06:09:08;;;;;;;8.60;5.87;;;-1.60;99.90;;;;;;5049220;28;20574;-70
2021/01/15 06:11:36;;;;;;;6.30;4.67;;;-1.60;99.90;;;;;;5049564;28;20472;-70
2021/01/15 06:14:03;;;;;;;8.23;5.40;;;-1.60;99.90;;;;;;5049602;28;20865;-70
2021/01/15 06:16:30;;;;;;;9.00;6.50;;;-1.70;99.90;;;;;;5046003;28;20824;-70
2021/01/15 06:19:01;;;;;;;7.53;5.37;;;-1.70;99.90;;;;;;5048773;28;20479;-69
2021/01/15 06:21:33;;;;;;;9.10;5.93;;;-1.70;99.90;;;;;;5047179;28;20913;-70
2021/01/15 06:24:07;;;;;;;7.10;6.00;;;-1.80;99.90;;;;;;5047269;28;20577;-71
2021/01/15 06:26:36;;;;;;;8.53;6.47;;;-1.80;99.90;;;;;;5046962;28;20950;-76
2021/01/15 06:29:11;;;;;;;8.30;5.70;;;-1.80;99.90;;;;;;5046977;28;20471;-70
2021/01/15 06:31:43;;;;;;;8.03;6.30;;;-1.90;99.90;;;;;;5045224;28;21003;-71
2021/01/15 06:34:10;;;;;;;9.83;7.23;;;-1.90;99.90;;;;;;5047067;28;20805;-71
2021/01/15 06:36:55;;;;;;;9.43;5.63;;;-1.90;99.90;;;;;;5046599;28;20547;-71
2021/01/15 06:39:22;;;;;;;9.67;6.53;;;-1.90;99.90;;;;;;5047082;28;20440;-71
2021/01/15 06:42:00;;;;;;;8.93;6.43;;;-2.00;99.90;;;;;;5028856;28;20965;-71
2021/01/15 06:44:28;;;;;;;10.60;6.40;;;-2.00;99.90;;;;;;5024317;28;20466;-70
2021/01/15 06:46:55;;;;;;;10.50;7.13;;;-2.00;99.90;;;;;;5038951;28;20455;-69
2021/01/15 06:49:31;;;;;;;11.53;8.03;;;-2.00;99.90;;;;;;5046317;28;20566;-69
2021/01/15 06:51:59;;;;;;;11.03;6.83;;;-2.00;99.90;;;;;;5047523;28;20497;-71
2021/01/15 06:54:27;;;;;;;9.83;7.10;;;-2.00;99.90;;;;;;5044371;28;20507;-70
2021/01/15 06:57:11;;;;;;;12.00;7.20;;;-1.90;99.90;;;;;;5046635;28;20448;-70
2021/01/15 06:59:39;;;;;;;12.63;7.80;;;-1.90;99.90;;;;;;5045968;28;20440;-70
2021/01/15 07:02:19;;;;;;;10.40;7.00;;;-2.00;99.90;;;;;;5046675;28;20471;-70
2021/01/15 07:04:59;;;;;;;10.23;7.80;;;-2.00;99.90;;;;;;5045966;28;21015;-69
2021/01/15 07:07:27;;;;;;;11.50;8.47;;;-2.00;99.90;;;;;;5066143;28;20443;-69
2021/01/15 07:09:54;;;;;;;12.23;7.73;;;-2.00;99.90;;;;;;5067246;28;20482;-69
2021/01/15 07:12:22;;;;;;;15.93;8.50;;;-2.00;99.90;;;;;;5070583;28;20835;-68
2021/01/15 07:14:54;;;;;;;10.63;7.83;;;-2.10;99.90;;;;;;5046196;28;20524;-69
2021/01/15 07:17:32;;;;;;;12.30;8.20;;;-2.10;99.90;;;;;;5029941;28;20483;-70
2021/01/15 07:20:08;;;;;;;12.13;8.30;;;-2.20;99.90;;;;;;5030055;28;20448;-70
2021/01/15 07:22:52;;;;;;;10.83;8.30;;;-2.20;99.90;;;;;;5030788;28;20487;-67
2021/01/15 07:25:19;;;;;;;12.33;9.00;;;-2.30;99.90;;;;;;5036302;28;20448;-68
2021/01/15 07:27:46;;;;;;;11.33;8.60;;;-2.40;99.90;;;;;;5048411;28;20542;-70
2021/01/15 07:30:20;;;;;;;13.67;8.20;;;-2.40;99.90;;;;;;5039492;28;21055;-71
2021/01/15 07:32:51;;;;;;;12.90;9.20;;;-2.40;99.90;;;;;;5033546;28;20459;-67
2021/01/15 07:35:19;;;;;;;12.90;9.13;;;-2.40;99.90;;;;;;5028644;28;20528;-69
2021/01/15 07:37:45;;;;;;;15.10;10.30;;;-2.30;99.90;;;;;;5027394;28;20445;-69
2021/01/15 07:40:15;;;;;;;18.23;8.97;;;-2.20;99.90;;;;;;5031233;28;20519;-68
2021/01/15 07:42:48;;;;;;;11.33;8.53;;;-2.10;99.90;;;;;;5048472;28;20463;-69
2021/01/15 07:45:50;;;;;;;13.47;8.07;;;-2.00;99.90;;;;;;5047985;28;20451;-71
2021/01/15 07:48:19;;;;;;;20.40;9.00;;;-1.90;99.90;;;;;;5047844;28;20533;-72
2021/01/15 07:50:46;;;;;;;14.53;7.80;;;-1.90;99.90;;;;;;5047124;28;20490;-69
2021/01/15 07:53:40;;;;;;;17.87;10.00;;;-1.90;99.90;;;;;;5048180;28;20515;-70
2021/01/15 07:56:07;;;;;;;11.57;7.77;;;-1.80;99.90;;;;;;5042895;28;20459;-73
2021/01/15 07:58:47;;;;;;;15.77;9.70;;;-1.80;99.90;;;;;;5047458;28;20444;-71
2021/01/15 08:01:16;;;;;;;12.27;9.10;;;-1.70;99.90;;;;;;5047712;28;20490;-71
2021/01/15 08:03:45;;;;;;;12.87;9.10;;;-1.70;99.90;;;;;;5048071;28;20462;-71
2021/01/15 08:06:13;;;;;;;13.77;9.23;;;-1.70;99.90;;;;;;5047406;28;21150;-72
2021/01/15 08:09:00;;;;;;;14.10;8.90;;;-1.70;99.90;;;;;;5048273;28;20537;-72
2021/01/15 08:11:26;;;;;;;13.37;9.20;;;-1.60;99.90;;;;;;5047492;28;20474;-71
2021/01/15 08:14:11;;;;;;;17.00;11.43;;;-1.60;99.90;;;;;;5048144;28;20479;-72
2021/01/15 08:16:38;;;;;;;12.67;9.67;;;-1.70;99.90;;;;;;5047203;28;20758;-72
2021/01/15 08:19:08;;;;;;;14.27;9.60;;;-1.60;99.90;;;;;;5047835;28;20823;-72
2021/01/15 08:21:36;;;;;;;12.53;9.87;;;-1.50;99.90;;;;;;5047379;28;20459;-70
2021/01/15 08:24:03;;;;;;;14.50;10.77;;;-1.50;99.90;;;;;;5047763;28;20546;-72
2021/01/15 08:26:41;;;;;;;14.77;10.50;;;-1.40;99.90;;;;;;5047313;28;20448;-72
2021/01/15 08:29:07;;;;;;;13.67;9.60;;;-1.40;99.90;;;;;;5047351;28;20471;-73
2021/01/15 08:31:34;;;;;;;17.93;10.60;;;-1.30;99.90;;;;;;5047591;28;20567;-71
2021/01/15 08:34:09;;;;;;;13.67;10.57;;;-1.20;99.90;;;;;;5047212;28;20538;-71
2021/01/15 08:36:39;;;;;;;14.87;11.07;;;-1.20;99.90;;;;;;5047370;28;20518;-71
2021/01/15 08:39:05;;;;;;;17.33;8.93;;;-1.10;99.90;;;;;;5046306;28;20500;-70
2021/01/15 08:41:33;;;;;;;12.17;9.20;;;-1.00;99.90;;;;;;5047370;28;20460;-70
2021/01/15 08:44:00;;;;;;;11.70;9.90;;;-0.90;99.90;;;;;;5048314;28;21027;-70
2021/01/15 08:46:27;;;;;;;11.20;9.53;;;-0.80;99.90;;;;;;5047208;28;20535;-70
2021/01/15 08:48:53;;;;;;;16.70;9.80;;;-0.80;99.90;;;;;;5048245;28;20452;-71
2021/01/15 08:51:25;;;;;;;13.10;9.67;;;-0.70;99.90;;;;;;5047861;28;20507;-71
2021/01/15 08:54:04;;;;;;;12.00;10.50;;;-0.70;99.90;;;;;;5047355;28;20502;-71
2021/01/15 08:56:33;;;;;;;16.00;10.07;;;-0.60;99.90;;;;;;5047526;28;20928;-71
2021/01/15 08:59:00;;;;;;;12.60;9.70;;;-0.60;99.90;;;;;;5046975;28;20998;-72
2021/01/15 09:01:28;;;;;;;14.60;10.17;;;-0.50;99.90;;;;;;5047081;28;20558;-71
2021/01/15 09:03:57;;;;;;;12.40;9.37;;;-0.40;99.90;;;;;;5047123;28;20440;-72
2021/01/15 09:06:25;;;;;;;12.17;9.70;;;-0.40;99.90;;;;;;5046658;28;20509;-72
2021/01/15 09:08:54;;;;;;;11.07;9.30;;;-0.40;99.90;;;;;;5046603;28;21228;-71
2021/01/15 09:11:26;;;;;;;14.73;10.47;;;-0.30;99.90;;;;;;5047174;28;20464;-71
2021/01/15 09:13:53;;;;;;;12.93;9.70;;;-0.20;99.90;;;;;;5047222;28;20539;-71
2021/01/15 09:16:22;;;;;;;16.43;11.70;;;-0.20;99.90;;;;;;5031044;28;20479;-71
2021/01/15 09:18:49;;;;;;;14.37;11.07;;;0.00;99.90;;;;;;5027214;28;20808;-72
2021/01/15 09:21:15;;;;;;;13.23;9.63;;;0.10;99.90;;;;;;5028010;28;20564;-70
2021/01/15 09:23:42;;;;;;;15.97;10.40;;;0.30;99.90;;;;;;5046391;28;20467;-70
2021/01/15 09:26:09;;;;;;;12.40;9.50;;;0.30;99.90;;;;;;5036762;28;20999;-71
2021/01/15 09:28:36;;;;;;;12.77;9.53;;;0.30;99.90;;;;;;5046807;28;20475;-74
2021/01/15 09:31:03;;;;;;;11.03;9.17;;;0.40;99.90;;;;;;5045455;28;20541;-72
2021/01/15 09:33:30;;;;;;;11.40;8.63;;;0.50;99.90;;;;;;5046126;28;20451;-72
2021/01/15 09:35:56;;;;;;;13.87;9.93;;;0.50;99.90;;;;;;5043745;28;20539;-71
2021/01/15 09:38:26;;;;;;;13.33;10.13;;;0.70;99.90;;;;;;5044745;28;20464;-74
2021/01/15 09:40:53;;;;;;;14.77;10.70;;;0.80;99.90;;;;;;5043766;28;20461;-74
2021/01/15 09:43:20;;;;;;;12.40;9.37;;;1.00;99.90;;;;;;5046139;28;20460;-73
2021/01/15 09:45:47;;;;;;;12.73;10.30;;;1.20;99.90;;;;;;5045765;28;20451;-73
2021/01/15 09:48:14;;;;;;;13.32;11.85;;;1.30;99.90;;;;;;5045420;28;20485;-74
2021/01/15 09:50:41;;;;;;;13.73;10.00;;;1.60;99.90;;;;;;5045428;28;20229;-74
2021/01/15 09:53:07;;;;;;;12.90;11.13;;;1.70;99.90;;;;;;5046402;28;20447;-75
2021/01/15 09:55:34;;;;;;;15.00;11.40;;;1.80;99.90;;;;;;5049243;28;20436;-74
2021/01/15 09:58:01;;;;;;;11.90;9.73;;;1.70;99.90;;;;;;5050221;28;20497;-76
2021/01/15 10:00:28;;;;;;;14.03;11.40;;;1.60;99.90;;;;;;5046031;28;20432;-77
2021/01/15 10:02:54;;;;;;;12.90;9.60;;;1.40;99.90;;;;;;5046751;28;20539;-76
2021/01/15 10:05:21;;;;;;;14.20;9.40;;;1.20;99.90;;;;;;5046519;28;20519;-76
2021/01/15 10:07:48;;;;;;;13.63;9.80;;;1.20;99.90;;;;;;5046057;28;20444;-77
2021/01/15 10:10:15;;;;;;;16.30;10.17;;;1.20;99.90;;;;;;5046369;28;20533;-76
2021/01/15 10:12:45;;;;;;;15.33;10.93;;;1.20;99.90;;;;;;5047114;28;20444;-76
2021/01/15 10:15:14;;;;;;;13.20;10.43;;;1.00;99.90;;;;;;5046124;28;20443;-74
2021/01/15 10:17:44;;;;;;;15.30;11.37;;;1.00;99.90;;;;;;5046122;28;20448;-74
2021/01/15 10:20:12;;;;;;;18.40;12.27;;;0.90;99.90;;;;;;5046116;28;20551;-74
2021/01/15 10:22:39;;;;;;;15.93;10.20;;;0.90;99.90;;;;;;5045711;28;20488;-74
2021/01/15 10:25:07;;;;;;;16.80;11.97;;;0.90;99.90;;;;;;5046430;28;20448;-74
2021/01/15 10:27:35;;;;;;;20.17;10.80;;;1.00;99.90;;;;;;5045083;28;20519;-74
2021/01/15 10:30:01;;;;;;;14.47;9.90;;;1.40;99.90;;;;;;5046025;28;20967;-74
2021/01/15 10:32:28;;;;;;;14.07;9.43;;;2.20;99.90;;;;;;5045579;28;20558;-76
2021/01/15 10:34:55;;;;;;;14.30;10.87;;;2.90;99.90;;;;;;5046168;28;20464;-74
2021/01/15 10:37:21;;;;;;;12.70;10.30;;;3.20;99.90;;;;;;5046735;28;21061;-74
2021/01/15 10:39:48;;;;;;;13.80;11.23;;;3.30;99.90;;;;;;5045784;28;20480;-76
2021/01/15 10:42:14;;;;;;;12.97;10.50;;;3.80;99.90;;;;;;5046630;28;20543;-75
2021/01/15 10:44:40;;;;;;;13.60;10.37;;;4.20;99.90;;;;;;5046081;28;20535;-75
2021/01/15 10:47:07;;;;;;;13.57;10.23;;;4.50;99.90;;;;;;5045695;28;20484;-76
2021/01/15 10:49:34;;;;;;;13.40;10.17;;;4.50;99.90;;;;;;5046039;28;21052;-74
2021/01/15 10:52:00;;;;;;;13.60;11.10;;;4.50;99.90;;;;;;5045960;28;20530;-75
2021/01/15 10:54:27;;;;;;;14.80;10.23;;;4.70;99.90;;;;;;5045357;28;20565;-73
2021/01/15 10:56:53;;;;;;;14.83;10.87;;;4.80;99.90;;;;;;5045604;28;20515;-73
2021/01/15 10:59:20;;;;;;;12.53;9.70;;;4.80;99.90;;;;;;5045122;28;20443;-77
2021/01/15 11:01:48;;;;;;;13.40;10.20;;;4.90;99.90;;;;;;5046363;28;20487;-74
2021/01/15 11:04:16;;;;;;;13.30;10.90;;;4.70;99.90;;;;;;5045705;28;21057;-73
2021/01/15 11:06:44;;;;;;;14.27;12.03;;;4.00;99.90;;;;;;5035697;28;20535;-74
2021/01/15 11:09:13;;;;;;;15.63;11.70;;;3.20;99.90;;;;;;5044092;28;20566;-70
2021/01/15 11:11:45;;;;;;;11.93;10.13;;;2.70;99.90;;;;;;5045348;28;20556;-72
2021/01/15 11:14:11;;;;;;;14.63;11.73;;;2.30;99.90;;;;;;5044945;28;20975;-73
2021/01/15 11:16:38;;;;;;;15.87;11.60;;;2.10;99.90;;;;;;5045556;28;20247;-73
2021/01/15 11:19:04;;;;;;;14.63;12.20;;;2.00;99.90;;;;;;5045209;28;20614;-72
2021/01/15 11:21:31;;;;;;;16.33;11.30;;;1.80;99.90;;;;;;5045412;28;20464;-72
2021/01/15 11:23:58;;;;;;;13.03;11.03;;;1.80;99.90;;;;;;5046038;28;20529;-72
2021/01/15 11:26:25;;;;;;;14.03;11.30;;;1.70;99.90;;;;;;5045334;28;20538;-72
2021/01/15 11:28:52;;;;;;;14.60;11.10;;;1.70;99.90;;;;;;5044769;28;20592;-71
2021/01/15 11:31:19;;;;;;;12.90;10.47;;;1.70;99.90;;;;;;5045435;28;20548;-71
2021/01/15 11:33:45;;;;;;;13.50;10.37;;;1.70;99.90;;;;;;5046119;28;20447;-71
2021/01/15 11:36:12;;;;;;;13.13;10.40;;;1.70;99.90;;;;;;5045122;28;20527;-71
2021/01/15 11:38:39;;;;;;;13.90;11.57;;;1.70;99.90;;;;;;5043016;28;21054;-72
2021/01/15 11:41:06;;;;;;;13.70;10.20;;;1.70;99.90;;;;;;5044857;28;20461;-72
2021/01/15 11:43:34;;;;;;;12.73;9.57;;;1.80;99.90;;;;;;5047020;28;20510;-73
2021/01/15 11:46:01;;;;;;;13.13;10.00;;;1.90;99.90;;;;;;5042715;28;20448;-73
2021/01/15 11:48:28;;;;;;;11.90;9.60;;;1.80;99.90;;;;;;5036835;28;20536;-73
2021/01/15 11:50:55;;;;;;;15.90;11.00;;;1.90;99.90;;;;;;5043474;28;20488;-70
2021/01/15 11:53:22;;;;;;;14.20;11.47;;;2.00;99.90;;;;;;5045159;28;20609;-69
2021/01/15 11:55:49;;;;;;;14.00;10.07;;;2.00;99.90;;;;;;5045654;28;20513;-70
2021/01/15 11:58:17;;;;;;;18.80;10.40;;;2.10;99.90;;;;;;5039868;28;20444;-72
2021/01/15 12:00:43;;;;;;;13.27;9.30;;;2.10;99.90;;;;;;5048369;28;20547;-72
2021/01/15 12:03:10;;;;;;;15.33;11.60;;;2.10;99.90;;;;;;5048321;28;20535;-72
2021/01/15 12:05:40;;;;;;;13.63;10.60;;;2.00;99.90;;;;;;5047720;28;20530;-72
2021/01/15 12:08:07;;;;;;;13.17;10.93;;;2.00;99.90;;;;;;5048507;28;20448;-72
2021/01/15 12:10:33;;;;;;;11.98;10.68;;;2.10;99.90;;;;;;5047295;28;20506;-72
2021/01/15 12:13:00;;;;;;;13.00;10.33;;;2.10;99.90;;;;;;5048436;28;20293;-71
2021/01/15 12:15:27;;;;;;;9.60;8.60;;;2.20;99.90;;;;;;5049157;28;20531;-70
2021/01/15 12:17:54;;;;;;;10.80;8.87;;;2.20;99.90;;;;;;5048723;28;20483;-74
2021/01/15 12:20:20;;;;;;;10.97;8.10;;;2.20;99.90;;;;;;5049250;28;20476;-73
2021/01/15 12:22:48;;;;;;;13.17;8.63;;;2.30;99.90;;;;;;5049163;28;20963;-72
2021/01/15 12:25:15;;;;;;;15.60;9.60;;;2.30;99.90;;;;;;5048107;28;20450;-72
2021/01/15 12:27:41;;;;;;;11.53;9.37;;;2.30;99.90;;;;;;5051207;28;21000;-73
2021/01/15 12:30:09;;;;;;;12.37;10.10;;;2.40;99.90;;;;;;5038336;28;20615;-73
2021/01/15 12:32:37;;;;;;;12.47;9.80;;;2.40;99.90;;;;;;5045344;28;20478;-73
2021/01/15 12:35:04;;;;;;;14.07;10.37;;;2.40;99.90;;;;;;5050397;28;20515;-73
2021/01/15 12:37:30;;;;;;;13.20;10.00;;;2.40;99.90;;;;;;5052597;28;21225;-75
2021/01/15 12:39:57;;;;;;;12.50;9.20;;;2.50;99.90;;;;;;5052038;28;20471;-76
2021/01/15 12:42:23;;;;;;;14.10;10.67;;;2.50;99.90;;;;;;5051985;28;20464;-72
2021/01/15 12:44:50;;;;;;;10.87;9.23;;;2.50;99.90;;;;;;5050401;28;20450;-73
2021/01/15 12:47:16;;;;;;;12.27;9.83;;;2.60;99.90;;;;;;5051569;28;20472;-71
2021/01/15 12:49:43;;;;;;;13.00;10.30;;;2.60;99.90;;;;;;5049713;28;20471;-73
2021/01/15 12:52:10;;;;;;;14.70;10.10;;;2.70;99.90;;;;;;5051133;28;20500;-73